Terminal Aerodrome Forecast
Issued by NWS Sterling, VA

Home | Current Version | Previous Version | Text Only | Print | Product List | Glossary On
Versions: 1 2 3 4 5 6 7 8 9 10 11 12 13 14 15 16 17 18 19 20 21
000
FTUS41 KLWX 011100
TAFBWI
TAF
KBWI 011133Z 0112/0218 VRB03KT P6SM BKN050 BKN100
     FM011600 20005KT 6SM -SHRA BKN050 BKN100
     FM020200 10006KT P6SM OVC060
     FM021400 04007KT P6SM OVC035
     FM021500 04007KT P6SM OVC030=

USA.gov is the U.S. government's official web portal to all federal, state and local government web resources and services.